West Palm Beach, Florida
Current Conditions -  °F | °C
As of 12:53 PM on Friday 24 Oct 2014 (Local Time) from KPBI Reporting Station
Broken Clouds Broken Clouds  
Wind Chill: 79°   Ceiling: 4400
Heat Index: 81°   Visibility: 10mi
Dew Point: 67°   Wind: 18mph
Humidity: 66%   Direction: 40°NE
Pressure: 29.89"   Gusts: 26mph
Location:  26.71°N, 80.05°W
Report Text: KPBI 241653Z 04016G23KT 10SM SCT029 BKN044 BKN050 26/19 A2989 RMK AO2 RAE1558 SLP122 P0000 T02610194
Loading
Personal Weather Stations






























Interactive Weather Map
Tropical Storm Tracking
New forecast layout! Learn more

10-Day Weather Forecast

Advertisements
Track Severe Weather on mobile